sensor_id;sensor_type;location;lat;lon;timestamp;temperature;humidity
73572;DHT22;61854;48.510;-2.770;2023-03-01T00:00:40;3.40;93.00
73572;DHT22;61854;48.510;-2.770;2023-03-01T00:03:06;3.40;93.10
73572;DHT22;61854;48.510;-2.770;2023-03-01T00:05:32;3.40;93.20
73572;DHT22;61854;48.510;-2.770;2023-03-01T00:07:58;3.40;93.30
73572;DHT22;61854;48.510;-2.770;2023-03-01T00:10:24;3.30;93.30
73572;DHT22;61854;48.510;-2.770;2023-03-01T00:12:49;3.30;93.30
73572;DHT22;61854;48.510;-2.770;2023-03-01T00:15:15;3.30;93.40
73572;DHT22;61854;48.510;-2.770;2023-03-01T00:17:41;3.30;93.50
73572;DHT22;61854;48.510;-2.770;2023-03-01T00:20:07;3.30;93.50
73572;DHT22;61854;48.510;-2.770;2023-03-01T00:22:36;3.30;93.50
73572;DHT22;61854;48.510;-2.770;2023-03-01T00:25:03;3.30;93.50
73572;DHT22;61854;48.510;-2.770;2023-03-01T00:27:29;3.30;93.60
73572;DHT22;61854;48.510;-2.770;2023-03-01T00:29:55;3.30;93.60
73572;DHT22;61854;48.510;-2.770;2023-03-01T00:32:20;3.30;93.60
73572;DHT22;61854;48.510;-2.770;2023-03-01T00:34:46;3.30;93.60
73572;DHT22;61854;48.510;-2.770;2023-03-01T00:37:20;3.20;93.40
73572;DHT22;61854;48.510;-2.770;2023-03-01T00:39:46;3.30;93.20
73572;DHT22;61854;48.510;-2.770;2023-03-01T00:42:12;3.30;93.10
73572;DHT22;61854;48.510;-2.770;2023-03-01T00:44:37;3.20;92.90
73572;DHT22;61854;48.510;-2.770;2023-03-01T00:47:03;3.20;92.80
73572;DHT22;61854;48.510;-2.770;2023-03-01T00:49:29;3.20;92.70
73572;DHT22;61854;48.510;-2.770;2023-03-01T00:51:54;3.20;92.60
73572;DHT22;61854;48.510;-2.770;2023-03-01T00:54:20;3.10;92.30
73572;DHT22;61854;48.510;-2.770;2023-03-01T00:56:46;3.10;92.30
73572;DHT22;61854;48.510;-2.770;2023-03-01T00:59:11;3.10;92.10
73572;DHT22;61854;48.510;-2.770;2023-03-01T01:01:37;3.10;92.10
73572;DHT22;61854;48.510;-2.770;2023-03-01T01:04:09;3.10;92.00
73572;DHT22;61854;48.510;-2.770;2023-03-01T01:06:43;3.10;91.80
73572;DHT22;61854;48.510;-2.770;2023-03-01T01:09:11;3.00;91.70
73572;DHT22;61854;48.510;-2.770;2023-03-01T01:11:49;3.00;91.60
73572;DHT22;61854;48.510;-2.770;2023-03-01T01:14:16;3.00;91.60
73572;DHT22;61854;48.510;-2.770;2023-03-01T01:16:42;3.00;91.50
73572;DHT22;61854;48.510;-2.770;2023-03-01T01:19:11;3.00;91.50
73572;DHT22;61854;48.510;-2.770;2023-03-01T01:21:36;2.90;91.30
73572;DHT22;61854;48.510;-2.770;2023-03-01T01:24:03;2.90;91.00
73572;DHT22;61854;48.510;-2.770;2023-03-01T01:26:31;2.90;90.70
73572;DHT22;61854;48.510;-2.770;2023-03-01T01:28:58;2.90;90.40
73572;DHT22;61854;48.510;-2.770;2023-03-01T01:31:24;2.90;90.10
73572;DHT22;61854;48.510;-2.770;2023-03-01T01:33:52;2.90;89.50
73572;DHT22;61854;48.510;-2.770;2023-03-01T01:36:17;2.90;89.10
73572;DHT22;61854;48.510;-2.770;2023-03-01T01:38:43;2.90;88.90
73572;DHT22;61854;48.510;-2.770;2023-03-01T01:41:10;2.90;88.20
73572;DHT22;61854;48.510;-2.770;2023-03-01T01:43:45;2.80;87.80
73572;DHT22;61854;48.510;-2.770;2023-03-01T01:46:30;2.80;86.80
73572;DHT22;61854;48.510;-2.770;2023-03-01T01:49:07;2.80;87.60
73572;DHT22;61854;48.510;-2.770;2023-03-01T01:51:41;2.70;86.50
73572;DHT22;61854;48.510;-2.770;2023-03-01T01:54:15;2.70;86.30
73572;DHT22;61854;48.510;-2.770;2023-03-01T01:56:46;2.70;85.80
73572;DHT22;61854;48.510;-2.770;2023-03-01T01:59:14;2.70;85.80
73572;DHT22;61854;48.510;-2.770;2023-03-01T02:01:39;2.60;86.40
73572;DHT22;61854;48.510;-2.770;2023-03-01T02:04:05;2.60;86.50
73572;DHT22;61854;48.510;-2.770;2023-03-01T02:06:39;2.60;86.70
73572;DHT22;61854;48.510;-2.770;2023-03-01T02:09:12;2.60;86.50
73572;DHT22;61854;48.510;-2.770;2023-03-01T02:11:38;2.60;86.90
73572;DHT22;61854;48.510;-2.770;2023-03-01T02:14:05;2.60;86.90
73572;DHT22;61854;48.510;-2.770;2023-03-01T02:16:32;2.60;86.80
73572;DHT22;61854;48.510;-2.770;2023-03-01T02:18:58;2.50;86.70
73572;DHT22;61854;48.510;-2.770;2023-03-01T02:21:35;2.50;87.00
73572;DHT22;61854;48.510;-2.770;2023-03-01T02:24:08;2.50;87.20
73572;DHT22;61854;48.510;-2.770;2023-03-01T02:26:42;2.50;87.50
73572;DHT22;61854;48.510;-2.770;2023-03-01T02:29:10;2.40;87.40
73572;DHT22;61854;48.510;-2.770;2023-03-01T02:31:36;2.40;87.70
73572;DHT22;61854;48.510;-2.770;2023-03-01T02:34:15;2.50;87.90
73572;DHT22;61854;48.510;-2.770;2023-03-01T02:36:49;2.40;88.00
73572;DHT22;61854;48.510;-2.770;2023-03-01T02:39:22;2.40;88.20
73572;DHT22;61854;48.510;-2.770;2023-03-01T02:41:54;2.40;88.40
73572;DHT22;61854;48.510;-2.770;2023-03-01T02:44:21;2.40;88.50
73572;DHT22;61854;48.510;-2.770;2023-03-01T02:46:56;2.40;88.40
73572;DHT22;61854;48.510;-2.770;2023-03-01T02:54:53;2.40;88.60
73572;DHT22;61854;48.510;-2.770;2023-03-01T02:57:22;2.40;88.70
73572;DHT22;61854;48.510;-2.770;2023-03-01T02:59:49;2.30;88.80
73572;DHT22;61854;48.510;-2.770;2023-03-01T03:02:25;2.30;89.20
73572;DHT22;61854;48.510;-2.770;2023-03-01T03:05:05;2.30;89.20
73572;DHT22;61854;48.510;-2.770;2023-03-01T03:07:34;2.20;89.30
73572;DHT22;61854;48.510;-2.770;2023-03-01T03:10:02;2.20;89.60
73572;DHT22;61854;48.510;-2.770;2023-03-01T03:12:28;2.20;89.60
73572;DHT22;61854;48.510;-2.770;2023-03-01T03:14:54;2.20;89.80
73572;DHT22;61854;48.510;-2.770;2023-03-01T03:17:19;2.20;89.80
73572;DHT22;61854;48.510;-2.770;2023-03-01T03:19:45;2.20;89.80
73572;DHT22;61854;48.510;-2.770;2023-03-01T03:22:12;2.20;89.90
73572;DHT22;61854;48.510;-2.770;2023-03-01T03:24:37;2.20;89.80
73572;DHT22;61854;48.510;-2.770;2023-03-01T03:27:04;2.10;89.80
73572;DHT22;61854;48.510;-2.770;2023-03-01T03:29:30;2.10;89.80
73572;DHT22;61854;48.510;-2.770;2023-03-01T03:31:56;2.10;89.80
73572;DHT22;61854;48.510;-2.770;2023-03-01T03:34:22;2.10;89.70
73572;DHT22;61854;48.510;-2.770;2023-03-01T03:36:47;2.10;89.50
73572;DHT22;61854;48.510;-2.770;2023-03-01T03:39:13;2.10;89.50
73572;DHT22;61854;48.510;-2.770;2023-03-01T03:41:38;2.10;89.10
73572;DHT22;61854;48.510;-2.770;2023-03-01T03:44:07;2.10;88.90
73572;DHT22;61854;48.510;-2.770;2023-03-01T03:46:32;2.10;88.60
73572;DHT22;61854;48.510;-2.770;2023-03-01T03:48:58;2.10;88.00
73572;DHT22;61854;48.510;-2.770;2023-03-01T03:51:24;2.10;87.60
73572;DHT22;61854;48.510;-2.770;2023-03-01T03:53:49;2.10;87.30
73572;DHT22;61854;48.510;-2.770;2023-03-01T03:56:15;2.10;86.90
73572;DHT22;61854;48.510;-2.770;2023-03-01T03:58:41;2.10;86.40
73572;DHT22;61854;48.510;-2.770;2023-03-01T04:01:06;2.10;86.10
73572;DHT22;61854;48.510;-2.770;2023-03-01T04:03:33;2.20;85.60
73572;DHT22;61854;48.510;-2.770;2023-03-01T04:06:01;2.20;85.20
73572;DHT22;61854;48.510;-2.770;2023-03-01T04:08:28;2.20;85.20
73572;DHT22;61854;48.510;-2.770;2023-03-01T04:10:59;2.20;84.90
73572;DHT22;61854;48.510;-2.770;2023-03-01T04:13:25;2.20;84.60
73572;DHT22;61854;48.510;-2.770;2023-03-01T04:15:53;2.20;84.70
73572;DHT22;61854;48.510;-2.770;2023-03-01T04:18:20;2.20;84.60
73572;DHT22;61854;48.510;-2.770;2023-03-01T04:20:47;2.20;85.00
73572;DHT22;61854;48.510;-2.770;2023-03-01T04:23:17;2.20;84.90
73572;DHT22;61854;48.510;-2.770;2023-03-01T04:28:15;2.20;84.90
73572;DHT22;61854;48.510;-2.770;2023-03-01T04:30:40;2.20;85.00
73572;DHT22;61854;48.510;-2.770;2023-03-01T04:33:08;2.20;85.20
73572;DHT22;61854;48.510;-2.770;2023-03-01T04:35:35;2.20;85.50
73572;DHT22;61854;48.510;-2.770;2023-03-01T04:38:01;2.20;85.80
73572;DHT22;61854;48.510;-2.770;2023-03-01T04:40:27;2.20;86.10
73572;DHT22;61854;48.510;-2.770;2023-03-01T04:42:52;2.20;86.50
73572;DHT22;61854;48.510;-2.770;2023-03-01T04:45:18;2.20;86.60
73572;DHT22;61854;48.510;-2.770;2023-03-01T04:47:45;2.20;86.80
73572;DHT22;61854;48.510;-2.770;2023-03-01T04:50:14;2.20;87.00
73572;DHT22;61854;48.510;-2.770;2023-03-01T04:52:40;2.20;87.40
73572;DHT22;61854;48.510;-2.770;2023-03-01T04:55:06;2.20;87.60
73572;DHT22;61854;48.510;-2.770;2023-03-01T04:57:32;2.20;87.80
73572;DHT22;61854;48.510;-2.770;2023-03-01T04:59:58;2.30;88.00
73572;DHT22;61854;48.510;-2.770;2023-03-01T05:02:24;2.30;88.20
73572;DHT22;61854;48.510;-2.770;2023-03-01T05:04:49;2.30;88.30
73572;DHT22;61854;48.510;-2.770;2023-03-01T05:07:15;2.30;88.50
73572;DHT22;61854;48.510;-2.770;2023-03-01T05:09:45;2.30;88.70
73572;DHT22;61854;48.510;-2.770;2023-03-01T05:12:12;2.30;88.70
73572;DHT22;61854;48.510;-2.770;2023-03-01T05:14:38;2.30;88.60
73572;DHT22;61854;48.510;-2.770;2023-03-01T05:17:04;2.30;88.80
73572;DHT22;61854;48.510;-2.770;2023-03-01T05:19:31;2.30;88.50
73572;DHT22;61854;48.510;-2.770;2023-03-01T05:21:58;2.40;88.30
73572;DHT22;61854;48.510;-2.770;2023-03-01T05:24:33;2.40;88.10
73572;DHT22;61854;48.510;-2.770;2023-03-01T05:27:00;2.40;87.70
73572;DHT22;61854;48.510;-2.770;2023-03-01T05:29:27;2.40;86.80
73572;DHT22;61854;48.510;-2.770;2023-03-01T05:31:58;2.50;86.30
73572;DHT22;61854;48.510;-2.770;2023-03-01T05:34:33;2.50;85.50
73572;DHT22;61854;48.510;-2.770;2023-03-01T05:36:59;2.50;85.00
73572;DHT22;61854;48.510;-2.770;2023-03-01T05:39:27;2.50;84.40
73572;DHT22;61854;48.510;-2.770;2023-03-01T05:41:54;2.60;84.00
73572;DHT22;61854;48.510;-2.770;2023-03-01T05:44:20;2.60;83.80
73572;DHT22;61854;48.510;-2.770;2023-03-01T05:46:46;2.60;83.30
73572;DHT22;61854;48.510;-2.770;2023-03-01T05:49:14;2.60;83.00
73572;DHT22;61854;48.510;-2.770;2023-03-01T05:51:46;2.60;82.10
73572;DHT22;61854;48.510;-2.770;2023-03-01T05:54:12;2.60;81.30
73572;DHT22;61854;48.510;-2.770;2023-03-01T05:56:38;2.60;81.30
73572;DHT22;61854;48.510;-2.770;2023-03-01T05:59:05;2.60;81.50
73572;DHT22;61854;48.510;-2.770;2023-03-01T06:01:32;2.60;80.90
73572;DHT22;61854;48.510;-2.770;2023-03-01T06:03:57;2.70;80.70
73572;DHT22;61854;48.510;-2.770;2023-03-01T06:06:24;2.60;80.40
73572;DHT22;61854;48.510;-2.770;2023-03-01T06:08:51;2.60;80.30
73572;DHT22;61854;48.510;-2.770;2023-03-01T06:11:16;2.60;80.20
73572;DHT22;61854;48.510;-2.770;2023-03-01T06:13:43;2.60;80.20
73572;DHT22;61854;48.510;-2.770;2023-03-01T06:16:10;2.60;79.80
73572;DHT22;61854;48.510;-2.770;2023-03-01T06:18:37;2.50;79.30
73572;DHT22;61854;48.510;-2.770;2023-03-01T06:21:03;2.50;79.40
73572;DHT22;61854;48.510;-2.770;2023-03-01T06:23:29;2.50;79.70
73572;DHT22;61854;48.510;-2.770;2023-03-01T06:25:58;2.50;79.90
73572;DHT22;61854;48.510;-2.770;2023-03-01T06:28:24;2.50;80.60
73572;DHT22;61854;48.510;-2.770;2023-03-01T06:30:50;2.50;80.60
73572;DHT22;61854;48.510;-2.770;2023-03-01T06:33:17;2.50;81.80
73572;DHT22;61854;48.510;-2.770;2023-03-01T06:35:48;2.50;83.60
73572;DHT22;61854;48.510;-2.770;2023-03-01T06:38:13;2.60;83.20
73572;DHT22;61854;48.510;-2.770;2023-03-01T06:40:45;2.60;84.40
73572;DHT22;61854;48.510;-2.770;2023-03-01T06:43:10;2.60;84.30
73572;DHT22;61854;48.510;-2.770;2023-03-01T06:45:36;2.50;84.90
73572;DHT22;61854;48.510;-2.770;2023-03-01T06:48:04;2.50;83.50
73572;DHT22;61854;48.510;-2.770;2023-03-01T06:50:30;2.50;82.50
73572;DHT22;61854;48.510;-2.770;2023-03-01T06:52:56;2.50;81.30
73572;DHT22;61854;48.510;-2.770;2023-03-01T06:55:22;2.50;80.80
73572;DHT22;61854;48.510;-2.770;2023-03-01T06:57:48;2.50;80.80
73572;DHT22;61854;48.510;-2.770;2023-03-01T07:00:14;2.50;80.60
73572;DHT22;61854;48.510;-2.770;2023-03-01T07:02:40;2.50;80.70
73572;DHT22;61854;48.510;-2.770;2023-03-01T07:05:05;2.60;80.80
73572;DHT22;61854;48.510;-2.770;2023-03-01T07:07:31;2.50;81.00
73572;DHT22;61854;48.510;-2.770;2023-03-01T07:09:57;2.60;81.20
73572;DHT22;61854;48.510;-2.770;2023-03-01T07:12:23;2.60;81.30
73572;DHT22;61854;48.510;-2.770;2023-03-01T07:14:48;2.60;81.50
73572;DHT22;61854;48.510;-2.770;2023-03-01T07:17:14;2.60;81.50
73572;DHT22;61854;48.510;-2.770;2023-03-01T07:19:40;2.70;81.40
73572;DHT22;61854;48.510;-2.770;2023-03-01T07:22:05;2.70;81.40
73572;DHT22;61854;48.510;-2.770;2023-03-01T07:24:33;2.70;81.60
73572;DHT22;61854;48.510;-2.770;2023-03-01T07:26:59;2.70;81.30
73572;DHT22;61854;48.510;-2.770;2023-03-01T07:29:24;2.80;81.50
73572;DHT22;61854;48.510;-2.770;2023-03-01T07:39:36;3.00;81.80
73572;DHT22;61854;48.510;-2.770;2023-03-01T07:42:02;3.10;81.70
73572;DHT22;61854;48.510;-2.770;2023-03-01T07:44:28;3.20;81.80
73572;DHT22;61854;48.510;-2.770;2023-03-01T07:46:56;3.20;81.30
73572;DHT22;61854;48.510;-2.770;2023-03-01T07:49:23;3.30;81.80
73572;DHT22;61854;48.510;-2.770;2023-03-01T07:51:49;3.30;81.70
73572;DHT22;61854;48.510;-2.770;2023-03-01T07:54:14;3.40;81.80
73572;DHT22;61854;48.510;-2.770;2023-03-01T07:56:40;3.50;82.20
73572;DHT22;61854;48.510;-2.770;2023-03-01T07:59:06;3.50;82.20
73572;DHT22;61854;48.510;-2.770;2023-03-01T08:01:33;3.60;82.20
73572;DHT22;61854;48.510;-2.770;2023-03-01T08:03:59;3.60;82.30
73572;DHT22;61854;48.510;-2.770;2023-03-01T08:06:25;3.70;82.50
73572;DHT22;61854;48.510;-2.770;2023-03-01T08:08:51;3.70;82.60
73572;DHT22;61854;48.510;-2.770;2023-03-01T08:11:17;3.90;83.00
73572;DHT22;61854;48.510;-2.770;2023-03-01T08:13:43;3.90;82.60
73572;DHT22;61854;48.510;-2.770;2023-03-01T08:16:12;4.00;82.70
73572;DHT22;61854;48.510;-2.770;2023-03-01T08:18:39;4.10;83.00
73572;DHT22;61854;48.510;-2.770;2023-03-01T08:21:11;4.20;82.80
73572;DHT22;61854;48.510;-2.770;2023-03-01T08:23:37;4.20;82.70
73572;DHT22;61854;48.510;-2.770;2023-03-01T08:26:04;4.30;82.40
73572;DHT22;61854;48.510;-2.770;2023-03-01T08:28:31;4.50;82.60
73572;DHT22;61854;48.510;-2.770;2023-03-01T08:31:00;4.60;82.50
73572;DHT22;61854;48.510;-2.770;2023-03-01T08:33:25;4.80;82.30
73572;DHT22;61854;48.510;-2.770;2023-03-01T08:35:51;5.20;81.60
73572;DHT22;61854;48.510;-2.770;2023-03-01T08:38:17;5.70;80.40
73572;DHT22;61854;48.510;-2.770;2023-03-01T08:40:43;6.10;78.80
73572;DHT22;61854;48.510;-2.770;2023-03-01T08:43:08;6.40;76.90
73572;DHT22;61854;48.510;-2.770;2023-03-01T08:45:34;6.50;75.40
73572;DHT22;61854;48.510;-2.770;2023-03-01T08:48:00;6.50;74.40
73572;DHT22;61854;48.510;-2.770;2023-03-01T08:50:26;6.30;74.50
73572;DHT22;61854;48.510;-2.770;2023-03-01T08:52:51;6.20;75.80
73572;DHT22;61854;48.510;-2.770;2023-03-01T08:55:17;6.10;76.90
73572;DHT22;61854;48.510;-2.770;2023-03-01T08:57:43;6.10;77.70
73572;DHT22;61854;48.510;-2.770;2023-03-01T09:00:10;6.00;76.50
73572;DHT22;61854;48.510;-2.770;2023-03-01T09:02:40;6.00;76.90
73572;DHT22;61854;48.510;-2.770;2023-03-01T09:05:08;6.00;76.30
73572;DHT22;61854;48.510;-2.770;2023-03-01T09:07:34;6.00;75.80
73572;DHT22;61854;48.510;-2.770;2023-03-01T09:10:00;6.00;75.80
73572;DHT22;61854;48.510;-2.770;2023-03-01T09:12:25;6.10;76.70
73572;DHT22;61854;48.510;-2.770;2023-03-01T09:14:51;6.10;76.70
73572;DHT22;61854;48.510;-2.770;2023-03-01T09:17:17;6.00;76.40
73572;DHT22;61854;48.510;-2.770;2023-03-01T09:19:42;6.00;76.30
73572;DHT22;61854;48.510;-2.770;2023-03-01T09:22:08;6.10;75.90
73572;DHT22;61854;48.510;-2.770;2023-03-01T09:24:34;6.00;74.70
73572;DHT22;61854;48.510;-2.770;2023-03-01T09:26:59;6.10;75.80
73572;DHT22;61854;48.510;-2.770;2023-03-01T09:29:26;6.10;76.50
73572;DHT22;61854;48.510;-2.770;2023-03-01T09:31:52;6.10;75.80
73572;DHT22;61854;48.510;-2.770;2023-03-01T09:34:20;6.00;75.70
73572;DHT22;61854;48.510;-2.770;2023-03-01T09:36:49;6.00;75.80
73572;DHT22;61854;48.510;-2.770;2023-03-01T09:39:15;6.00;75.50
73572;DHT22;61854;48.510;-2.770;2023-03-01T09:42:03;6.00;75.90
73572;DHT22;61854;48.510;-2.770;2023-03-01T09:44:38;6.00;76.70
73572;DHT22;61854;48.510;-2.770;2023-03-01T09:47:12;6.00;76.90
73572;DHT22;61854;48.510;-2.770;2023-03-01T09:49:43;6.00;76.40
73572;DHT22;61854;48.510;-2.770;2023-03-01T09:52:40;5.90;76.60
73572;DHT22;61854;48.510;-2.770;2023-03-01T09:55:16;5.90;76.40
73572;DHT22;61854;48.510;-2.770;2023-03-01T10:00:48;6.00;77.10
73572;DHT22;61854;48.510;-2.770;2023-03-01T10:03:21;6.10;77.10
73572;DHT22;61854;48.510;-2.770;2023-03-01T10:11:28;6.10;75.40
73572;DHT22;61854;48.510;-2.770;2023-03-01T10:17:06;6.20;75.60
73572;DHT22;61854;48.510;-2.770;2023-03-01T10:19:40;6.30;74.80
73572;DHT22;61854;48.510;-2.770;2023-03-01T10:22:19;6.30;74.80
73572;DHT22;61854;48.510;-2.770;2023-03-01T10:24:50;6.30;75.30
73572;DHT22;61854;48.510;-2.770;2023-03-01T10:27:34;6.40;74.10
73572;DHT22;61854;48.510;-2.770;2023-03-01T10:32:29;6.30;74.90
73572;DHT22;61854;48.510;-2.770;2023-03-01T10:34:58;6.30;74.30
73572;DHT22;61854;48.510;-2.770;2023-03-01T10:37:23;6.40;74.90
73572;DHT22;61854;48.510;-2.770;2023-03-01T10:40:17;6.40;75.50
73572;DHT22;61854;48.510;-2.770;2023-03-01T10:42:48;6.40;74.30
73572;DHT22;61854;48.510;-2.770;2023-03-01T10:48:20;6.40;74.90
73572;DHT22;61854;48.510;-2.770;2023-03-01T10:50:51;6.30;74.40
73572;DHT22;61854;48.510;-2.770;2023-03-01T10:53:30;6.30;74.80
73572;DHT22;61854;48.510;-2.770;2023-03-01T10:56:11;6.30;75.40
73572;DHT22;61854;48.510;-2.770;2023-03-01T11:01:33;6.40;76.20
73572;DHT22;61854;48.510;-2.770;2023-03-01T11:06:35;6.50;75.70
73572;DHT22;61854;48.510;-2.770;2023-03-01T11:11:39;6.60;75.00
73572;DHT22;61854;48.510;-2.770;2023-03-01T11:16:42;6.80;75.10
73572;DHT22;61854;48.510;-2.770;2023-03-01T11:24:05;6.80;75.70
73572;DHT22;61854;48.510;-2.770;2023-03-01T11:26:32;6.90;76.70
73572;DHT22;61854;48.510;-2.770;2023-03-01T11:29:03;7.00;75.50
73572;DHT22;61854;48.510;-2.770;2023-03-01T11:31:31;7.00;74.90
73572;DHT22;61854;48.510;-2.770;2023-03-01T11:36:54;6.90;74.30
73572;DHT22;61854;48.510;-2.770;2023-03-01T11:42:12;6.70;74.50
73572;DHT22;61854;48.510;-2.770;2023-03-01T11:44:39;6.70;74.90
73572;DHT22;61854;48.510;-2.770;2023-03-01T11:47:30;6.70;74.10
73572;DHT22;61854;48.510;-2.770;2023-03-01T12:38:01;7.20;74.50
73572;DHT22;61854;48.510;-2.770;2023-03-01T12:46:25;7.50;74.10
73572;DHT22;61854;48.510;-2.770;2023-03-01T12:49:02;7.60;73.90
73572;DHT22;61854;48.510;-2.770;2023-03-01T12:51:34;7.70;74.40
73572;DHT22;61854;48.510;-2.770;2023-03-01T12:54:15;7.90;74.10
73572;DHT22;61854;48.510;-2.770;2023-03-01T12:56:41;7.90;73.70
73572;DHT22;61854;48.510;-2.770;2023-03-01T13:02:02;7.90;73.40
73572;DHT22;61854;48.510;-2.770;2023-03-01T13:04:35;8.00;74.10
73572;DHT22;61854;48.510;-2.770;2023-03-01T13:07:29;7.90;73.10
73572;DHT22;61854;48.510;-2.770;2023-03-01T13:13:00;8.00;75.10
73572;DHT22;61854;48.510;-2.770;2023-03-01T13:15:33;8.10;74.40
73572;DHT22;61854;48.510;-2.770;2023-03-01T13:20:45;8.10;74.30
73572;DHT22;61854;48.510;-2.770;2023-03-01T13:31:05;8.00;74.10
73572;DHT22;61854;48.510;-2.770;2023-03-01T13:35:58;8.10;74.50
73572;DHT22;61854;48.510;-2.770;2023-03-01T13:38:44;8.10;73.70
73572;DHT22;61854;48.510;-2.770;2023-03-01T13:41:12;8.00;74.10
73572;DHT22;61854;48.510;-2.770;2023-03-01T13:43:41;8.30;74.50
73572;DHT22;61854;48.510;-2.770;2023-03-01T13:46:36;8.50;73.50
73572;DHT22;61854;48.510;-2.770;2023-03-01T13:49:03;8.70;71.80
73572;DHT22;61854;48.510;-2.770;2023-03-01T13:51:29;9.00;71.90
73572;DHT22;61854;48.510;-2.770;2023-03-01T13:53:58;9.10;71.60
73572;DHT22;61854;48.510;-2.770;2023-03-01T13:56:28;9.10;70.90
73572;DHT22;61854;48.510;-2.770;2023-03-01T13:59:02;9.00;69.60
73572;DHT22;61854;48.510;-2.770;2023-03-01T14:01:35;8.80;70.20
73572;DHT22;61854;48.510;-2.770;2023-03-01T14:04:02;8.50;70.60
73572;DHT22;61854;48.510;-2.770;2023-03-01T14:06:31;8.30;71.80
73572;DHT22;61854;48.510;-2.770;2023-03-01T14:09:16;8.20;72.50
73572;DHT22;61854;48.510;-2.770;2023-03-01T14:20:42;7.70;74.30
73572;DHT22;61854;48.510;-2.770;2023-03-01T14:23:18;7.60;75.00
73572;DHT22;61854;48.510;-2.770;2023-03-01T14:25:54;7.60;76.40
73572;DHT22;61854;48.510;-2.770;2023-03-01T14:28:21;7.50;76.20
73572;DHT22;61854;48.510;-2.770;2023-03-01T14:30:58;7.50;76.50
73572;DHT22;61854;48.510;-2.770;2023-03-01T14:40:59;7.30;75.70
73572;DHT22;61854;48.510;-2.770;2023-03-01T14:43:27;7.40;74.20
73572;DHT22;61854;48.510;-2.770;2023-03-01T14:45:54;7.40;73.50
73572;DHT22;61854;48.510;-2.770;2023-03-01T14:48:21;7.40;72.30
73572;DHT22;61854;48.510;-2.770;2023-03-01T14:50:47;7.50;72.50
73572;DHT22;61854;48.510;-2.770;2023-03-01T14:53:28;7.50;71.70
73572;DHT22;61854;48.510;-2.770;2023-03-01T14:55:59;7.50;71.60
73572;DHT22;61854;48.510;-2.770;2023-03-01T14:58:27;7.50;71.60
73572;DHT22;61854;48.510;-2.770;2023-03-01T15:01:00;7.50;72.00
73572;DHT22;61854;48.510;-2.770;2023-03-01T15:03:37;7.50;72.50
73572;DHT22;61854;48.510;-2.770;2023-03-01T15:06:04;7.50;72.80
73572;DHT22;61854;48.510;-2.770;2023-03-01T15:08:32;7.50;72.80
73572;DHT22;61854;48.510;-2.770;2023-03-01T15:11:02;7.50;73.40
73572;DHT22;61854;48.510;-2.770;2023-03-01T15:13:33;7.40;74.40
73572;DHT22;61854;48.510;-2.770;2023-03-01T15:18:32;7.40;75.40
73572;DHT22;61854;48.510;-2.770;2023-03-01T15:21:09;7.40;75.40
73572;DHT22;61854;48.510;-2.770;2023-03-01T15:23:39;7.40;75.10
73572;DHT22;61854;48.510;-2.770;2023-03-01T15:26:05;7.50;74.50
73572;DHT22;61854;48.510;-2.770;2023-03-01T15:28:33;7.40;73.20
73572;DHT22;61854;48.510;-2.770;2023-03-01T15:31:11;7.40;73.00
73572;DHT22;61854;48.510;-2.770;2023-03-01T15:33:38;7.40;73.40
73572;DHT22;61854;48.510;-2.770;2023-03-01T15:38:57;7.40;73.30
73572;DHT22;61854;48.510;-2.770;2023-03-01T15:41:30;7.50;73.20
73572;DHT22;61854;48.510;-2.770;2023-03-01T15:44:00;7.40;73.30
73572;DHT22;61854;48.510;-2.770;2023-03-01T15:46:34;7.50;73.20
73572;DHT22;61854;48.510;-2.770;2023-03-01T15:52:29;7.40;73.90
73572;DHT22;61854;48.510;-2.770;2023-03-01T15:55:05;7.40;74.50
73572;DHT22;61854;48.510;-2.770;2023-03-01T15:57:32;7.40;74.70
73572;DHT22;61854;48.510;-2.770;2023-03-01T15:59:57;7.40;75.00
73572;DHT22;61854;48.510;-2.770;2023-03-01T16:02:23;7.40;75.40
73572;DHT22;61854;48.510;-2.770;2023-03-01T16:04:50;7.40;75.50
73572;DHT22;61854;48.510;-2.770;2023-03-01T16:07:16;7.30;76.10
73572;DHT22;61854;48.510;-2.770;2023-03-01T16:09:42;7.30;77.10
73572;DHT22;61854;48.510;-2.770;2023-03-01T16:12:14;7.20;77.80
73572;DHT22;61854;48.510;-2.770;2023-03-01T16:14:40;7.20;77.70
73572;DHT22;61854;48.510;-2.770;2023-03-01T16:17:06;7.10;77.10
73572;DHT22;61854;48.510;-2.770;2023-03-01T16:19:35;7.20;77.40
73572;DHT22;61854;48.510;-2.770;2023-03-01T16:22:05;7.10;77.80
73572;DHT22;61854;48.510;-2.770;2023-03-01T16:24:31;7.10;78.10
73572;DHT22;61854;48.510;-2.770;2023-03-01T16:26:57;7.10;78.10
73572;DHT22;61854;48.510;-2.770;2023-03-01T16:29:22;7.10;78.10
73572;DHT22;61854;48.510;-2.770;2023-03-01T16:31:48;7.10;78.40
73572;DHT22;61854;48.510;-2.770;2023-03-01T16:34:14;7.10;78.80
73572;DHT22;61854;48.510;-2.770;2023-03-01T16:36:42;7.10;79.00
73572;DHT22;61854;48.510;-2.770;2023-03-01T16:39:09;7.10;79.30
73572;DHT22;61854;48.510;-2.770;2023-03-01T16:41:34;7.00;78.90
73572;DHT22;61854;48.510;-2.770;2023-03-01T16:44:00;7.00;78.50
73572;DHT22;61854;48.510;-2.770;2023-03-01T16:46:27;7.00;78.20
73572;DHT22;61854;48.510;-2.770;2023-03-01T16:48:54;6.90;77.50
73572;DHT22;61854;48.510;-2.770;2023-03-01T16:51:21;7.00;78.60
73572;DHT22;61854;48.510;-2.770;2023-03-01T16:53:47;6.90;77.40
73572;DHT22;61854;48.510;-2.770;2023-03-01T16:56:13;6.90;78.00
73572;DHT22;61854;48.510;-2.770;2023-03-01T16:58:40;6.80;78.20
73572;DHT22;61854;48.510;-2.770;2023-03-01T17:01:17;6.80;77.50
73572;DHT22;61854;48.510;-2.770;2023-03-01T17:03:44;6.80;77.00
73572;DHT22;61854;48.510;-2.770;2023-03-01T17:06:15;6.80;76.90
73572;DHT22;61854;48.510;-2.770;2023-03-01T17:08:40;6.80;76.60
73572;DHT22;61854;48.510;-2.770;2023-03-01T17:11:12;6.70;76.50
73572;DHT22;61854;48.510;-2.770;2023-03-01T17:13:38;6.70;76.80
73572;DHT22;61854;48.510;-2.770;2023-03-01T17:16:09;6.70;75.90
73572;DHT22;61854;48.510;-2.770;2023-03-01T17:18:35;6.60;75.70
73572;DHT22;61854;48.510;-2.770;2023-03-01T17:21:03;6.60;76.10
73572;DHT22;61854;48.510;-2.770;2023-03-01T17:23:30;6.60;76.60
73572;DHT22;61854;48.510;-2.770;2023-03-01T17:25:56;6.60;77.20
73572;DHT22;61854;48.510;-2.770;2023-03-01T17:28:23;6.60;77.40
73572;DHT22;61854;48.510;-2.770;2023-03-01T17:30:49;6.60;77.80
73572;DHT22;61854;48.510;-2.770;2023-03-01T17:33:15;6.60;78.10
73572;DHT22;61854;48.510;-2.770;2023-03-01T17:35:41;6.60;78.60
73572;DHT22;61854;48.510;-2.770;2023-03-01T17:38:08;6.60;78.80
73572;DHT22;61854;48.510;-2.770;2023-03-01T17:40:34;6.60;78.40
73572;DHT22;61854;48.510;-2.770;2023-03-01T17:43:00;6.60;78.50
73572;DHT22;61854;48.510;-2.770;2023-03-01T17:45:26;6.60;78.10
73572;DHT22;61854;48.510;-2.770;2023-03-01T17:47:51;6.60;78.30
73572;DHT22;61854;48.510;-2.770;2023-03-01T17:50:17;6.60;78.70
73572;DHT22;61854;48.510;-2.770;2023-03-01T17:52:43;6.50;78.40
73572;DHT22;61854;48.510;-2.770;2023-03-01T17:55:09;6.50;78.20
73572;DHT22;61854;48.510;-2.770;2023-03-01T17:57:38;6.50;78.50
73572;DHT22;61854;48.510;-2.770;2023-03-01T18:00:06;6.50;78.60
73572;DHT22;61854;48.510;-2.770;2023-03-01T18:02:33;6.50;77.60
73572;DHT22;61854;48.510;-2.770;2023-03-01T18:04:59;6.50;77.70
73572;DHT22;61854;48.510;-2.770;2023-03-01T18:07:26;6.40;77.30
73572;DHT22;61854;48.510;-2.770;2023-03-01T18:09:51;6.50;76.60